createdAt,value
2017-04-13T00:00:42.207Z,99.90
2017-04-13T00:01:42.046Z,99.90
2017-04-13T00:02:41.988Z,99.90
2017-04-13T00:03:42.579Z,99.90
2017-04-13T00:04:43.190Z,99.90
2017-04-13T00:05:43.056Z,99.90
2017-04-13T00:06:42.982Z,99.90
2017-04-13T00:07:43.626Z,99.90
2017-04-13T00:08:43.493Z,99.90
2017-04-13T00:09:43.354Z,99.90
2017-04-13T00:10:43.337Z,99.90
2017-04-13T00:11:43.192Z,99.90
2017-04-13T00:12:43.074Z,99.90
2017-04-13T00:13:43.871Z,99.90
2017-04-13T00:14:43.690Z,99.90
2017-04-13T00:15:43.572Z,99.90
2017-04-13T00:16:43.362Z,99.90
2017-04-13T00:17:43.325Z,99.90
2017-04-13T00:18:43.180Z,99.90
2017-04-13T00:19:43.063Z,99.90
2017-04-13T00:20:42.867Z,99.90
2017-04-13T00:21:42.801Z,99.90
2017-04-13T00:22:43.546Z,99.90
2017-04-13T00:23:43.366Z,99.90
2017-04-13T00:24:57.644Z,99.90
2017-04-13T00:25:58.207Z,99.90
2017-04-13T00:26:58.082Z,99.90
2017-04-13T00:27:59.206Z,99.90
2017-04-13T00:28:59.030Z,99.90
2017-04-13T00:29:59.609Z,99.90
2017-04-13T00:30:59.501Z,99.90
2017-04-13T00:31:59.657Z,99.90
2017-04-13T00:32:59.463Z,99.90
2017-04-13T00:33:59.298Z,99.90
2017-04-13T00:34:59.139Z,99.90
2017-04-13T00:35:58.938Z,99.90
2017-04-13T00:36:58.828Z,99.90
2017-04-13T00:37:58.793Z,99.90
2017-04-13T00:38:58.640Z,99.90
2017-04-13T00:39:58.459Z,99.90
2017-04-13T00:40:58.237Z,99.90
2017-04-13T00:41:58.022Z,99.90
2017-04-13T00:42:57.850Z,99.90
2017-04-13T00:43:57.682Z,99.90
2017-04-13T00:44:57.704Z,99.90
2017-04-13T00:45:57.518Z,99.90
2017-04-13T00:46:57.345Z,99.90
2017-04-13T00:47:57.132Z,99.90
2017-04-13T00:48:56.920Z,99.90
2017-04-13T00:49:57.525Z,99.90
2017-04-13T00:50:57.350Z,99.90
2017-04-13T00:51:57.199Z,99.90
2017-04-13T00:52:56.966Z,99.90
2017-04-13T00:53:56.781Z,99.90
2017-04-13T00:54:56.623Z,99.90
2017-04-13T00:55:56.463Z,99.90
2017-04-13T00:56:56.242Z,99.90
2017-04-13T00:57:56.006Z,99.90
2017-04-13T00:58:56.582Z,99.90
2017-04-13T00:59:56.372Z,99.90
2017-04-13T01:00:56.285Z,99.90
2017-04-13T01:01:56.169Z,99.90
2017-04-13T01:02:56.106Z,99.90
2017-04-13T01:03:55.970Z,99.90
2017-04-13T01:04:56.001Z,99.90
2017-04-13T01:05:55.814Z,99.90
2017-04-13T01:06:55.697Z,99.90
2017-04-13T01:07:55.437Z,99.90
2017-04-13T01:08:55.299Z,99.90
2017-04-13T01:09:55.081Z,99.90
2017-04-13T01:10:55.059Z,99.90
2017-04-13T01:11:54.901Z,99.90
2017-04-13T01:12:54.730Z,99.90
2017-04-13T01:13:54.599Z,99.90
2017-04-13T01:14:54.424Z,99.90
2017-04-13T01:15:54.208Z,99.90
2017-04-13T01:16:54.051Z,99.90
2017-04-13T01:17:53.846Z,99.90
2017-04-13T01:18:53.808Z,99.90
2017-04-13T01:19:53.611Z,99.90
2017-04-13T01:20:53.346Z,99.90
2017-04-13T01:21:53.103Z,99.90
2017-04-13T01:22:52.884Z,99.90
2017-04-13T01:23:52.834Z,99.90
2017-04-13T01:24:52.666Z,99.90
2017-04-13T01:25:52.401Z,99.90
2017-04-13T01:26:52.124Z,99.90
2017-04-13T01:27:52.018Z,99.90
2017-04-13T01:28:51.786Z,99.90
2017-04-13T01:29:52.435Z,99.90
2017-04-13T01:30:52.158Z,99.90
2017-04-13T01:31:51.998Z,99.90
2017-04-13T01:32:51.784Z,99.90
2017-04-13T01:33:51.542Z,99.90
2017-04-13T01:34:51.306Z,99.90
2017-04-13T01:35:51.204Z,99.90
2017-04-13T01:36:50.932Z,99.90
2017-04-13T01:37:50.730Z,99.90
2017-04-13T01:38:50.537Z,99.90
2017-04-13T01:39:50.356Z,99.90
2017-04-13T01:40:50.097Z,99.90
2017-04-13T01:41:49.942Z,99.90
2017-04-13T01:42:49.723Z,99.90
2017-04-13T01:43:49.605Z,99.90
2017-04-13T01:44:49.371Z,99.90
2017-04-13T01:45:49.113Z,99.90
2017-04-13T01:46:48.902Z,99.90
2017-04-13T01:47:48.773Z,99.90
2017-04-13T01:48:48.553Z,99.90
2017-04-13T01:49:48.299Z,99.90
2017-04-13T01:50:48.149Z,99.90
2017-04-13T01:51:48.051Z,99.90
2017-04-13T01:52:47.870Z,99.90
2017-04-13T01:53:47.679Z,99.90
2017-04-13T01:54:47.712Z,99.90
2017-04-13T01:55:47.462Z,99.90
2017-04-13T01:56:47.320Z,99.90
2017-04-13T01:57:47.127Z,99.90
2017-04-13T01:58:47.095Z,99.90
2017-04-13T01:59:46.862Z,99.90
2017-04-13T02:00:46.631Z,99.90
2017-04-13T02:01:46.440Z,99.90
2017-04-13T02:02:46.202Z,99.90
2017-04-13T02:03:45.961Z,99.90
2017-04-13T02:04:45.839Z,99.90
2017-04-13T02:05:45.656Z,99.90
2017-04-13T02:06:45.454Z,99.90
2017-04-13T02:07:45.222Z,99.90
2017-04-13T02:08:44.947Z,99.90
2017-04-13T02:09:44.744Z,99.90
2017-04-13T02:10:45.403Z,99.90
2017-04-13T02:11:45.356Z,99.90
2017-04-13T02:12:45.105Z,99.90
2017-04-13T02:13:44.883Z,99.90
2017-04-13T02:14:44.759Z,99.90
2017-04-13T02:15:44.537Z,99.90
2017-04-13T02:16:44.293Z,99.90
2017-04-13T02:17:44.075Z,99.90
2017-04-13T02:18:43.880Z,99.90
2017-04-13T02:19:43.690Z,99.90
2017-04-13T02:20:43.439Z,99.90
2017-04-13T02:21:43.149Z,99.90
2017-04-13T02:22:43.038Z,99.90
2017-04-13T02:23:42.805Z,99.90
2017-04-13T02:24:42.602Z,99.90
2017-04-13T02:25:42.398Z,99.90
2017-04-13T02:26:42.148Z,99.90
2017-04-13T02:27:41.884Z,99.90
2017-04-13T02:28:41.661Z,99.90
2017-04-13T02:29:41.434Z,99.90
2017-04-13T02:30:41.177Z,99.90
2017-04-13T02:31:41.728Z,99.90
2017-04-13T02:32:41.456Z,99.90
2017-04-13T02:33:41.299Z,99.90
2017-04-13T02:34:41.094Z,99.90
2017-04-13T02:35:40.858Z,99.90
2017-04-13T02:36:40.647Z,99.90
2017-04-13T02:37:40.466Z,99.90
2017-04-13T02:38:40.270Z,99.90
2017-04-13T02:39:40.129Z,99.90
2017-04-13T02:40:39.919Z,99.90
2017-04-13T02:41:39.673Z,99.90
2017-04-13T02:42:39.478Z,99.90
2017-04-13T02:43:39.216Z,99.90
2017-04-13T02:44:39.101Z,99.90
2017-04-13T02:45:38.922Z,99.90
2017-04-13T02:46:38.709Z,99.90
2017-04-13T02:47:38.795Z,99.90
2017-04-13T02:48:38.613Z,99.90
2017-04-13T02:49:38.413Z,99.90
2017-04-13T02:50:38.238Z,99.90
2017-04-13T02:51:38.143Z,99.90
2017-04-13T02:52:37.926Z,99.90
2017-04-13T02:53:37.706Z,99.90
2017-04-13T02:54:37.529Z,99.90
2017-04-13T02:55:37.322Z,99.90
2017-04-13T02:56:37.072Z,99.90
2017-04-13T02:57:36.907Z,99.90
2017-04-13T02:58:36.690Z,99.90
2017-04-13T02:59:36.475Z,99.90
2017-04-13T03:00:36.291Z,99.90
2017-04-13T03:01:36.143Z,99.90
2017-04-13T03:02:35.902Z,99.90
2017-04-13T03:03:35.770Z,99.90
2017-04-13T03:04:35.530Z,99.90
2017-04-13T03:05:35.310Z,99.90
2017-04-13T03:06:35.072Z,99.90
2017-04-13T03:07:34.932Z,99.90
2017-04-13T03:08:34.753Z,99.90
2017-04-13T03:09:34.621Z,99.90
2017-04-13T03:10:34.502Z,99.90
2017-04-13T03:11:34.297Z,99.90
2017-04-13T03:12:34.124Z,99.90
2017-04-13T03:13:33.916Z,99.90
2017-04-13T03:14:33.738Z,99.90
2017-04-13T03:15:33.569Z,99.90
2017-04-13T03:16:33.387Z,99.90
2017-04-13T03:17:33.267Z,99.90
2017-04-13T03:18:33.048Z,99.90
2017-04-13T03:19:32.818Z,99.90
2017-04-13T03:20:32.747Z,99.90
2017-04-13T03:21:33.239Z,99.90
2017-04-13T03:22:33.297Z,99.90
2017-04-13T03:23:33.090Z,99.90
2017-04-13T03:24:32.963Z,99.90
2017-04-13T03:25:33.570Z,99.90
2017-04-13T03:26:33.352Z,99.90
2017-04-13T03:27:33.101Z,99.90
2017-04-13T03:28:32.898Z,99.90
2017-04-13T03:29:32.694Z,99.90
2017-04-13T03:30:33.243Z,99.90
2017-04-13T03:31:33.062Z,99.90
2017-04-13T03:32:33.630Z,99.90
2017-04-13T03:33:33.415Z,99.90
2017-04-13T03:34:33.368Z,99.90
2017-04-13T03:35:33.244Z,99.90
2017-04-13T03:36:33.051Z,99.90
2017-04-13T03:37:33.699Z,99.90
2017-04-13T03:38:34.514Z,99.90
2017-04-13T03:39:34.395Z,99.90
2017-04-13T03:40:34.219Z,99.90
2017-04-13T03:41:34.120Z,99.90
2017-04-13T03:42:33.966Z,99.90
2017-04-13T03:43:33.804Z,99.90
2017-04-13T03:44:33.588Z,99.90
2017-04-13T03:45:33.403Z,99.90
2017-04-13T03:46:33.951Z,99.90
2017-04-13T03:47:33.741Z,99.90
2017-04-13T03:48:33.550Z,99.90
2017-04-13T03:49:33.377Z,99.90
2017-04-13T03:50:33.149Z,99.90
2017-04-13T03:51:32.947Z,99.90
2017-04-13T03:52:32.794Z,99.90
2017-04-13T03:53:33.279Z,99.90
2017-04-13T03:54:33.070Z,99.90
2017-04-13T03:55:32.821Z,99.90
2017-04-13T03:56:32.555Z,99.90
2017-04-13T03:57:32.301Z,99.90
2017-04-13T03:58:32.126Z,99.90
2017-04-13T03:59:31.874Z,99.90
2017-04-13T04:00:31.724Z,99.90
2017-04-13T04:01:31.449Z,99.90
2017-04-13T04:02:31.246Z,99.90
2017-04-13T04:03:31.076Z,99.90
2017-04-13T04:04:30.986Z,99.90
2017-04-13T04:05:30.738Z,99.90
2017-04-13T04:06:30.504Z,99.90
2017-04-13T04:07:30.242Z,99.90
2017-04-13T04:08:29.970Z,99.90
2017-04-13T04:09:29.718Z,99.90
2017-04-13T04:10:29.504Z,99.90
2017-04-13T04:11:29.287Z,99.90
2017-04-13T04:12:29.005Z,99.90
2017-04-13T04:13:28.785Z,99.90
2017-04-13T04:14:28.521Z,99.90
2017-04-13T04:15:28.271Z,99.90
2017-04-13T04:16:28.063Z,99.90
2017-04-13T04:17:27.948Z,99.90
2017-04-13T04:18:27.702Z,99.90
2017-04-13T04:19:27.475Z,99.90
2017-04-13T04:20:27.235Z,99.90
2017-04-13T04:21:27.061Z,99.90
2017-04-13T04:22:26.940Z,99.90
2017-04-13T04:23:27.541Z,99.90
2017-04-13T04:24:27.275Z,99.90
2017-04-13T04:25:27.073Z,99.90
2017-04-13T04:26:26.888Z,99.90
2017-04-13T04:27:26.881Z,99.90
2017-04-13T04:28:26.698Z,99.90
2017-04-13T04:29:26.466Z,99.90
2017-04-13T04:30:26.236Z,99.90
2017-04-13T04:31:25.970Z,99.90
2017-04-13T04:32:25.734Z,99.90
2017-04-13T04:33:25.547Z,99.90
2017-04-13T04:34:25.346Z,99.90
2017-04-13T04:35:25.176Z,99.90
2017-04-13T04:36:24.994Z,99.90
2017-04-13T04:37:24.792Z,99.90
2017-04-13T04:38:24.637Z,99.90
2017-04-13T04:39:24.465Z,99.90
2017-04-13T04:40:24.267Z,99.90
2017-04-13T04:41:24.051Z,99.90
2017-04-13T04:42:23.870Z,99.90
2017-04-13T04:43:23.754Z,99.90
2017-04-13T04:44:23.687Z,99.90
2017-04-13T04:45:23.564Z,99.90
2017-04-13T04:46:23.375Z,99.90
2017-04-13T04:47:23.154Z,99.90
2017-04-13T04:48:23.122Z,99.90
2017-04-13T04:49:22.902Z,99.90
2017-04-13T04:50:23.521Z,99.90
2017-04-13T04:51:23.368Z,99.90
2017-04-13T04:52:23.159Z,99.90
2017-04-13T04:53:23.003Z,99.90
2017-04-13T04:54:22.803Z,99.90
2017-04-13T04:55:22.557Z,99.90
2017-04-13T04:56:22.417Z,99.90
2017-04-13T04:57:22.231Z,99.90
2017-04-13T04:58:22.105Z,99.90
2017-04-13T04:59:21.981Z,99.90
2017-04-13T05:00:21.744Z,99.90
2017-04-13T05:01:21.558Z,99.90
2017-04-13T05:02:21.401Z,99.90
2017-04-13T05:03:21.241Z,99.90
2017-04-13T05:04:21.131Z,99.90
2017-04-13T05:05:21.675Z,99.90
2017-04-13T05:06:21.452Z,99.90
2017-04-13T05:07:21.293Z,99.90
2017-04-13T05:08:21.147Z,99.90
2017-04-13T05:09:20.963Z,99.90
2017-04-13T05:10:20.726Z,99.90
2017-04-13T05:11:20.528Z,99.90
2017-04-13T05:12:20.292Z,99.90
2017-04-13T05:13:20.070Z,99.90
2017-04-13T05:14:19.876Z,99.90
2017-04-13T05:15:19.687Z,99.90
2017-04-13T05:16:19.512Z,99.90
2017-04-13T05:17:19.269Z,99.90
2017-04-13T05:18:19.042Z,99.90
2017-04-13T05:19:18.918Z,99.90
2017-04-13T05:20:18.752Z,99.90
2017-04-13T05:21:18.493Z,99.90
2017-04-13T05:22:18.363Z,99.90
2017-04-13T05:23:18.178Z,99.90
2017-04-13T05:24:18.139Z,99.90
2017-04-13T05:25:17.929Z,99.90
2017-04-13T05:26:17.784Z,99.90
2017-04-13T05:27:17.615Z,99.90
2017-04-13T05:28:17.411Z,99.90
2017-04-13T05:29:17.222Z,99.90
2017-04-13T05:30:17.274Z,99.90
2017-04-13T05:31:17.133Z,99.90
2017-04-13T05:32:17.232Z,99.90
2017-04-13T05:33:17.110Z,99.90
2017-04-13T05:34:16.966Z,99.90
2017-04-13T05:35:16.785Z,99.90
2017-04-13T05:36:16.616Z,99.90
2017-04-13T05:37:17.094Z,99.90
2017-04-13T05:38:16.989Z,99.90
2017-04-13T05:39:16.875Z,99.90
2017-04-13T05:40:16.719Z,99.90
2017-04-13T05:41:16.605Z,99.90
2017-04-13T05:42:16.757Z,99.90
2017-04-13T05:43:17.539Z,99.90
2017-04-13T05:44:17.651Z,99.90
2017-04-13T05:45:17.447Z,99.90
2017-04-13T05:46:17.305Z,99.90
2017-04-13T05:47:17.110Z,99.90
2017-04-13T05:48:16.958Z,99.90
2017-04-13T05:49:16.708Z,99.90
2017-04-13T05:50:16.460Z,99.90
2017-04-13T05:51:16.245Z,99.90
2017-04-13T05:52:16.089Z,99.90
2017-04-13T05:53:15.917Z,99.90
2017-04-13T05:54:16.725Z,99.90
2017-04-13T05:55:16.568Z,99.90
2017-04-13T05:56:16.415Z,99.90
2017-04-13T05:57:16.289Z,99.90
2017-04-13T05:58:16.090Z,99.90
2017-04-13T05:59:15.923Z,99.90
2017-04-13T06:00:16.273Z,99.90
2017-04-13T06:01:16.130Z,99.90
2017-04-13T06:02:16.063Z,99.90
2017-04-13T06:03:18.555Z,99.90
2017-04-13T06:04:18.531Z,99.90
2017-04-13T06:05:19.292Z,99.90
2017-04-13T06:06:21.274Z,99.90
2017-04-13T06:07:23.074Z,97.00
2017-04-13T06:08:23.476Z,95.80
2017-04-13T06:09:23.407Z,93.70
2017-04-13T06:10:24.412Z,85.70
2017-04-13T06:11:24.453Z,71.60
2017-04-13T06:12:24.410Z,69.30
2017-04-13T06:13:24.341Z,71.50
2017-04-13T06:14:24.498Z,74.30
2017-04-13T06:15:24.485Z,79.70
2017-04-13T06:16:24.489Z,88.30
2017-04-13T06:17:24.714Z,90.70
2017-04-13T06:18:25.857Z,90.40
2017-04-13T06:19:26.685Z,90.10
2017-04-13T06:20:29.243Z,91.00
2017-04-13T06:21:30.634Z,93.20
2017-04-13T06:22:30.713Z,96.80
2017-04-13T06:23:30.583Z,98.70
2017-04-13T06:24:31.284Z,99.40
2017-04-13T06:25:31.238Z,98.20
2017-04-13T06:26:32.214Z,99.10
2017-04-13T06:27:32.315Z,98.80
2017-04-13T06:28:32.229Z,99.20
2017-04-13T06:29:32.079Z,99.00
2017-04-13T06:30:32.859Z,99.60
2017-04-13T06:31:32.726Z,99.90
2017-04-13T06:32:34.234Z,99.90
2017-04-13T06:33:34.094Z,99.80
2017-04-13T06:34:34.640Z,99.90
2017-04-13T06:35:35.430Z,99.90
2017-04-13T06:36:35.348Z,99.90
2017-04-13T06:37:35.605Z,99.90
2017-04-13T06:38:35.417Z,99.40
2017-04-13T06:39:35.266Z,99.90
2017-04-13T06:40:35.222Z,97.90
2017-04-13T06:41:35.258Z,96.20
2017-04-13T06:42:35.246Z,96.10
2017-04-13T06:43:35.539Z,94.60
2017-04-13T06:44:36.006Z,97.30
2017-04-13T06:45:35.973Z,96.40
2017-04-13T06:46:35.957Z,96.90
2017-04-13T06:47:36.025Z,96.60
2017-04-13T06:48:35.949Z,97.30
2017-04-13T06:49:35.856Z,97.10
2017-04-13T06:50:35.772Z,99.00
2017-04-13T06:51:35.682Z,98.10
2017-04-13T06:52:35.600Z,97.10
2017-04-13T06:53:35.838Z,96.10
2017-04-13T06:54:35.706Z,96.70
2017-04-13T06:55:35.586Z,96.50
2017-04-13T06:56:35.504Z,96.90
2017-04-13T06:57:43.545Z,96.10
2017-04-13T06:58:43.548Z,95.80
2017-04-13T06:59:43.371Z,96.60
2017-04-13T07:00:43.294Z,95.50
2017-04-13T07:01:43.167Z,95.60
2017-04-13T07:02:56.965Z,95.80
2017-04-13T07:03:57.677Z,96.00
2017-04-13T07:04:57.873Z,96.10
2017-04-13T07:05:57.795Z,96.20
2017-04-13T07:06:57.691Z,97.40
2017-04-13T07:07:57.602Z,96.90
2017-04-13T07:08:59.039Z,97.70
2017-04-13T07:09:58.889Z,95.90
2017-04-13T07:10:59.166Z,94.40
2017-04-13T07:11:59.787Z,94.50
2017-04-13T07:12:59.856Z,92.50
2017-04-13T07:14:01.401Z,86.10
2017-04-13T07:15:01.634Z,79.70
2017-04-13T07:16:02.597Z,75.80
2017-04-13T07:17:03.126Z,75.20
2017-04-13T07:18:03.383Z,76.30
2017-04-13T07:19:03.442Z,77.40
2017-04-13T07:20:07.204Z,78.00
2017-04-13T07:21:07.121Z,78.00
2017-04-13T07:22:08.098Z,74.00
2017-04-13T07:23:09.177Z,71.40
2017-04-13T07:24:09.129Z,66.50
2017-04-13T07:25:09.157Z,63.60
2017-04-13T07:26:10.025Z,61.70
2017-04-13T07:27:10.099Z,58.40
2017-04-13T07:28:10.581Z,58.30
2017-04-13T07:29:10.955Z,62.00
2017-04-13T07:30:10.973Z,61.10
2017-04-13T07:31:12.833Z,63.10
2017-04-13T07:32:14.179Z,62.70
2017-04-13T07:33:14.084Z,61.20
2017-04-13T07:34:14.107Z,62.50
2017-04-13T07:35:14.399Z,63.50
2017-04-13T07:36:14.421Z,63.60
2017-04-13T07:37:16.724Z,65.60
2017-04-13T07:38:17.421Z,65.50
2017-04-13T07:39:18.966Z,66.40
2017-04-13T07:40:20.437Z,67.20
2017-04-13T07:41:20.385Z,65.80
2017-04-13T07:42:21.346Z,67.60
2017-04-13T07:43:21.270Z,67.80
2017-04-13T07:44:21.280Z,67.70
2017-04-13T07:45:21.868Z,67.90
2017-04-13T07:46:21.838Z,70.00
2017-04-13T07:47:21.930Z,69.50
2017-04-13T07:48:21.854Z,70.40
2017-04-13T07:49:22.166Z,69.80
2017-04-13T07:50:22.266Z,69.30
2017-04-13T07:51:23.082Z,67.30
2017-04-13T07:52:23.667Z,68.30
2017-04-13T07:53:24.545Z,68.50
2017-04-13T07:54:24.510Z,69.00
2017-04-13T07:55:24.448Z,68.10
2017-04-13T07:56:25.678Z,67.60
2017-04-13T07:57:25.593Z,67.90
2017-04-13T07:58:25.499Z,67.00
2017-04-13T07:59:25.450Z,67.40
2017-04-13T08:00:25.682Z,69.60
2017-04-13T08:01:25.719Z,67.30
2017-04-13T08:02:26.315Z,68.20
2017-04-13T08:03:27.338Z,68.10
2017-04-13T08:04:27.523Z,66.70
2017-04-13T08:05:27.514Z,67.30
2017-04-13T08:06:28.485Z,64.10
2017-04-13T08:07:28.526Z,62.10
2017-04-13T08:08:28.500Z,59.70
2017-04-13T08:09:29.610Z,58.00
2017-04-13T08:10:31.077Z,57.10
2017-04-13T08:11:32.963Z,54.90
2017-04-13T08:12:33.870Z,52.10
2017-04-13T08:13:34.132Z,51.40
2017-04-13T08:14:34.175Z,50.50
2017-04-13T08:15:34.685Z,46.40
2017-04-13T08:16:35.198Z,44.90
2017-04-13T08:17:34.942Z,45.60
2017-04-13T08:18:34.653Z,44.00
2017-04-13T08:19:34.489Z,43.30
2017-04-13T08:20:34.960Z,42.10
2017-04-13T08:21:34.688Z,41.90
2017-04-13T08:22:34.425Z,44.10
2017-04-13T08:23:34.193Z,44.30
2017-04-13T08:24:33.918Z,46.20
2017-04-13T08:25:33.784Z,47.10
2017-04-13T08:26:33.475Z,48.90
2017-04-13T08:27:33.213Z,46.50
2017-04-13T08:28:33.612Z,48.90
2017-04-13T08:29:33.442Z,50.00
2017-04-13T08:30:33.288Z,51.80
2017-04-13T08:31:33.672Z,53.20
2017-04-13T08:32:33.870Z,53.10
2017-04-13T08:33:33.770Z,52.50
2017-04-13T08:34:33.666Z,52.40
2017-04-13T08:35:34.016Z,53.90
2017-04-13T08:36:35.603Z,55.00
2017-04-13T08:37:36.190Z,56.20
2017-04-13T08:38:37.035Z,58.20
2017-04-13T08:39:38.551Z,57.10
2017-04-13T08:40:38.708Z,57.40
2017-04-13T08:41:39.566Z,62.00
2017-04-13T08:42:40.876Z,63.60
2017-04-13T08:43:41.112Z,62.30
2017-04-13T08:44:41.671Z,64.50
2017-04-13T08:45:41.973Z,63.80
2017-04-13T08:46:42.940Z,67.10
2017-04-13T08:49:04.798Z,68.60
2017-04-13T08:50:07.034Z,71.40
2017-04-13T08:51:07.729Z,71.30
2017-04-13T08:52:07.929Z,73.20
2017-04-13T08:53:08.544Z,71.90
2017-04-13T08:54:09.546Z,70.60
2017-04-13T08:55:09.562Z,68.00
2017-04-13T08:56:09.626Z,69.30
2017-04-13T08:57:10.270Z,68.60
2017-04-13T08:58:10.414Z,68.70
2017-04-13T08:59:11.064Z,67.60
2017-04-13T09:00:11.871Z,66.30
2017-04-13T09:01:12.589Z,66.10
2017-04-13T09:02:13.521Z,64.10
2017-04-13T09:03:13.488Z,65.00
2017-04-13T09:04:13.427Z,63.90
2017-04-13T09:05:13.291Z,63.40
2017-04-13T09:06:13.504Z,65.30
2017-04-13T09:07:14.324Z,64.40
2017-04-13T09:08:15.301Z,63.60
2017-04-13T09:09:15.250Z,63.80
2017-04-13T09:10:15.813Z,63.00
2017-04-13T09:11:15.819Z,65.30
2017-04-13T09:12:16.501Z,62.70
2017-04-13T09:13:16.537Z,61.90
2017-04-13T09:14:17.330Z,63.00
2017-04-13T09:15:17.326Z,59.80
2017-04-13T09:16:17.289Z,57.00
2017-04-13T09:17:17.161Z,52.80
2017-04-13T09:18:16.984Z,50.90
2017-04-13T09:19:17.486Z,48.10
2017-04-13T09:20:17.481Z,46.60
2017-04-13T09:21:19.696Z,47.40
2017-04-13T09:22:20.303Z,48.00
2017-04-13T09:23:21.301Z,46.00
2017-04-13T09:24:21.429Z,45.80
2017-04-13T09:25:22.098Z,48.30
2017-04-13T09:26:22.112Z,47.80
2017-04-13T09:27:23.766Z,46.50
2017-04-13T09:28:24.029Z,48.30
2017-04-13T09:29:24.445Z,48.10
2017-04-13T09:30:27.074Z,47.20
2017-04-13T09:31:27.493Z,46.70
2017-04-13T09:32:28.562Z,47.10
2017-04-13T09:33:29.438Z,47.10
2017-04-13T09:34:30.028Z,46.60
2017-04-13T09:35:32.556Z,46.50
2017-04-13T09:36:33.871Z,44.70
2017-04-13T09:37:34.802Z,47.10
2017-04-13T09:38:36.026Z,45.20
2017-04-13T09:39:37.889Z,44.80
2017-04-13T09:40:39.393Z,47.40
2017-04-13T09:41:39.946Z,45.70
2017-04-13T09:42:39.853Z,47.90
2017-04-13T09:43:39.956Z,47.50
2017-04-13T09:44:39.885Z,47.70
2017-04-13T09:45:40.345Z,48.10
2017-04-13T09:46:40.694Z,48.20
2017-04-13T09:47:59.141Z,47.50
2017-04-13T09:48:59.494Z,48.00
2017-04-13T09:50:00.205Z,49.80
2017-04-13T09:51:01.273Z,47.60
2017-04-13T09:52:03.507Z,48.40
2017-04-13T09:53:03.404Z,49.70
2017-04-13T09:54:03.425Z,47.70
2017-04-13T09:55:03.155Z,46.10
2017-04-13T09:56:02.967Z,48.10
2017-04-13T09:57:02.744Z,48.00
2017-04-13T09:58:02.628Z,47.50
2017-04-13T09:59:02.387Z,46.60
2017-04-13T10:00:02.213Z,44.80
2017-04-13T10:01:02.108Z,44.40
2017-04-13T10:02:01.909Z,45.20
2017-04-13T10:03:01.771Z,46.50
2017-04-13T10:04:01.569Z,47.30
2017-04-13T10:05:01.353Z,45.10
2017-04-13T10:06:01.197Z,46.70
2017-04-13T10:07:00.992Z,47.50
2017-04-13T10:08:01.675Z,47.60
2017-04-13T10:09:01.983Z,49.10
2017-04-13T10:10:02.934Z,50.00
2017-04-13T10:11:04.396Z,50.40
2017-04-13T10:12:05.141Z,50.20
2017-04-13T10:13:06.808Z,50.60
2017-04-13T10:14:07.537Z,50.40
2017-04-13T10:15:08.601Z,50.90
2017-04-13T10:16:08.695Z,48.90
2017-04-13T10:17:08.851Z,49.10
2017-04-13T10:18:09.599Z,51.40
2017-04-13T10:19:09.858Z,49.30
2017-04-13T10:20:10.616Z,49.60
2017-04-13T10:21:11.083Z,48.70
2017-04-13T10:22:12.017Z,46.50
2017-04-13T10:23:12.664Z,47.20
2017-04-13T10:24:13.046Z,46.30
2017-04-13T10:25:13.363Z,47.30
2017-04-13T10:26:13.905Z,46.20
2017-04-13T10:27:14.274Z,47.30
2017-04-13T10:28:14.266Z,47.50
2017-04-13T10:29:15.215Z,48.50
2017-04-13T10:30:15.163Z,49.10
2017-04-13T10:31:15.549Z,48.40
2017-04-13T10:32:15.770Z,48.30
2017-04-13T10:33:16.701Z,49.10
2017-04-13T10:34:19.737Z,49.20
2017-04-13T10:35:21.314Z,50.50
2017-04-13T10:36:21.395Z,49.90
2017-04-13T10:37:22.517Z,49.00
2017-04-13T10:38:22.591Z,49.30
2017-04-13T10:39:22.525Z,49.00
2017-04-13T10:40:25.169Z,48.80
2017-04-13T10:41:25.267Z,47.40
2017-04-13T10:42:27.270Z,47.20
2017-04-13T10:43:27.406Z,46.50
2017-04-13T10:44:32.267Z,47.10
2017-04-13T10:45:33.210Z,48.00
2017-04-13T10:46:33.255Z,48.00
2017-04-13T10:47:35.022Z,46.80
2017-04-13T10:48:35.146Z,47.10
2017-04-13T10:49:35.566Z,49.60
2017-04-13T10:50:37.720Z,50.40
2017-04-13T10:51:40.211Z,48.80
2017-04-13T10:52:41.079Z,50.00
2017-04-13T10:53:42.375Z,50.00
2017-04-13T10:54:43.258Z,51.60
2017-04-13T10:55:43.212Z,50.30
2017-04-13T10:56:43.999Z,50.80
2017-04-13T10:57:44.215Z,51.30
2017-04-13T10:58:44.238Z,50.40
2017-04-13T10:59:44.240Z,51.00
2017-04-13T11:00:44.178Z,52.80
2017-04-13T11:01:44.998Z,54.50
2017-04-13T11:02:45.204Z,55.20
2017-04-13T11:03:46.560Z,55.90
2017-04-13T11:04:47.312Z,56.40
2017-04-13T11:05:47.146Z,57.50
2017-04-13T11:06:47.773Z,54.70
2017-04-13T11:07:48.645Z,55.40
2017-04-13T11:08:49.622Z,56.70
2017-04-13T11:09:49.639Z,56.30
2017-04-13T11:10:49.629Z,56.70
2017-04-13T11:11:49.753Z,57.40
2017-04-13T11:12:49.746Z,57.00
2017-04-13T11:13:49.947Z,55.70
2017-04-13T11:14:50.036Z,56.20
2017-04-13T11:15:50.125Z,54.70
2017-04-13T11:16:50.607Z,54.50
2017-04-13T11:19:14.589Z,54.20
2017-04-13T11:20:27.866Z,52.50
2017-04-13T11:21:29.317Z,53.60
2017-04-13T11:22:30.825Z,51.50
2017-04-13T11:23:30.723Z,52.20
2017-04-13T11:24:31.275Z,50.80
2017-04-13T11:25:31.171Z,52.10
2017-04-13T11:26:31.172Z,51.50
2017-04-13T11:27:31.673Z,50.30
2017-04-13T11:28:31.587Z,49.60
2017-04-13T11:29:31.632Z,49.10
2017-04-13T11:30:33.292Z,50.00
2017-04-13T11:31:33.213Z,50.50
2017-04-13T11:32:33.130Z,50.60
2017-04-13T11:33:33.137Z,48.50
2017-04-13T11:34:33.085Z,49.70
2017-04-13T11:35:33.073Z,49.80
2017-04-13T11:36:32.973Z,49.70
2017-04-13T11:38:56.444Z,48.20
2017-04-13T11:39:56.875Z,46.10
2017-04-13T11:40:57.770Z,46.30
2017-04-13T11:41:57.748Z,44.70
2017-04-13T11:42:58.780Z,45.40
2017-04-13T11:43:58.764Z,45.90
2017-04-13T11:44:58.792Z,45.60
2017-04-13T11:45:59.737Z,44.00
2017-04-13T11:47:00.243Z,45.50
2017-04-13T11:48:00.978Z,45.00
2017-04-13T11:49:03.531Z,44.70
2017-04-13T11:50:03.685Z,46.10
2017-04-13T11:52:26.243Z,45.30
2017-04-13T11:53:27.462Z,46.10
2017-04-13T11:54:28.965Z,43.90
2017-04-13T11:55:30.550Z,43.70
2017-04-13T11:56:30.727Z,44.50
2017-04-13T11:57:33.155Z,43.70
2017-04-13T11:58:34.792Z,43.20
2017-04-13T11:59:34.812Z,41.40
2017-04-13T12:00:36.456Z,43.00
2017-04-13T12:01:38.330Z,43.50
2017-04-13T12:02:38.413Z,42.10
2017-04-13T12:03:40.264Z,42.50
2017-04-13T12:04:41.908Z,43.20
2017-04-13T12:05:42.863Z,41.90
2017-04-13T12:06:43.414Z,43.50
2017-04-13T12:07:43.350Z,44.40
2017-04-13T12:08:44.877Z,44.70
2017-04-13T12:09:45.483Z,43.80
2017-04-13T12:10:45.575Z,44.70
2017-04-13T12:11:46.985Z,45.00
2017-04-13T12:12:47.967Z,44.40
2017-04-13T12:13:49.397Z,45.20
2017-04-13T12:14:50.863Z,46.50
2017-04-13T12:15:50.772Z,45.50
2017-04-13T12:16:50.627Z,45.00
2017-04-13T12:18:14.389Z,45.50
2017-04-13T12:19:15.048Z,46.10
2017-04-13T12:20:15.082Z,47.40
2017-04-13T12:21:15.972Z,44.50
2017-04-13T12:22:16.069Z,45.50
2017-04-13T12:23:16.057Z,45.10
2017-04-13T12:24:16.133Z,44.20
2017-04-13T12:25:16.005Z,44.70
2017-04-13T12:26:15.929Z,43.70
2017-04-13T12:27:16.247Z,45.00
2017-04-13T12:28:16.345Z,43.90
2017-04-13T12:29:16.394Z,43.90
2017-04-13T12:30:16.737Z,43.10
2017-04-13T12:31:17.670Z,45.00
2017-04-13T12:32:19.134Z,45.00
2017-04-13T12:33:19.857Z,44.10
2017-04-13T12:34:20.057Z,43.60
2017-04-13T12:35:20.321Z,44.00
2017-04-13T12:36:20.260Z,46.20
2017-04-13T12:37:20.821Z,46.20
2017-04-13T12:38:21.577Z,45.70
2017-04-13T12:39:21.637Z,47.20
2017-04-13T12:40:22.504Z,45.10
2017-04-13T12:41:24.189Z,44.80
2017-04-13T12:42:25.056Z,43.70
2017-04-13T12:43:25.122Z,42.70
2017-04-13T12:44:25.053Z,42.50
2017-04-13T12:45:25.631Z,42.90
2017-04-13T12:46:25.705Z,43.40
2017-04-13T12:47:26.848Z,44.50
2017-04-13T12:48:26.717Z,45.00
2017-04-13T12:49:27.937Z,44.90
2017-04-13T12:50:28.619Z,46.10
2017-04-13T12:51:29.293Z,45.60
2017-04-13T12:52:29.712Z,45.60
2017-04-13T12:53:29.791Z,46.80
2017-04-13T12:54:29.811Z,46.90
2017-04-13T12:55:30.496Z,46.90
2017-04-13T12:56:31.282Z,49.10
2017-04-13T12:57:32.269Z,50.00
2017-04-13T12:58:32.227Z,54.00
2017-04-13T12:59:32.124Z,54.00
2017-04-13T13:00:32.252Z,59.70
2017-04-13T13:01:32.537Z,63.50
2017-04-13T13:02:34.369Z,63.60